createdAt,value
2019-02-09T12:08:06.010Z,24.16
2019-02-09T12:09:05.973Z,23.60
2019-02-09T12:10:05.968Z,23.23
2019-02-09T12:11:06.016Z,23.22
2019-02-09T12:12:05.923Z,23.31
2019-02-09T12:13:05.921Z,23.32
2019-02-09T12:14:17.222Z,23.26
2019-02-09T12:15:17.166Z,23.26
2019-02-09T12:16:17.145Z,23.15
2019-02-09T12:17:17.146Z,23.19
2019-02-09T12:18:17.126Z,23.06
2019-02-09T12:19:17.121Z,23.11
2019-02-09T12:20:17.156Z,23.04
2019-02-09T12:21:17.091Z,23.07
2019-02-09T12:22:17.078Z,23.03
2019-02-09T12:23:17.068Z,23.07
2019-02-09T12:24:17.059Z,23.03
2019-02-09T12:25:17.185Z,23.09
2019-02-09T12:26:17.034Z,22.97
2019-02-09T12:27:17.023Z,22.94
2019-02-09T12:28:17.025Z,22.99
2019-02-09T12:29:17.002Z,22.94
2019-02-09T12:30:17.028Z,22.96
2019-02-09T12:31:16.987Z,22.86
2019-02-09T12:32:16.969Z,22.85
2019-02-09T12:33:22.826Z,22.85
2019-02-09T12:34:17.955Z,22.88
2019-02-09T12:35:17.052Z,22.82
2019-02-09T12:36:16.924Z,22.86
2019-02-09T12:37:16.931Z,22.82
2019-02-09T12:38:16.910Z,22.85
2019-02-09T12:39:16.891Z,22.84
2019-02-09T12:40:16.883Z,22.81
2019-02-09T12:41:16.904Z,22.78
2019-02-09T12:42:16.858Z,22.79
2019-02-09T12:43:16.855Z,22.78
2019-02-09T12:44:16.839Z,22.81
2019-02-09T12:45:16.867Z,22.72
2019-02-09T12:46:16.814Z,22.81
2019-02-09T12:47:16.806Z,22.78
2019-02-09T12:48:16.792Z,22.78
2019-02-09T12:49:16.787Z,22.76
2019-02-09T12:50:16.797Z,22.75
2019-02-09T12:51:16.758Z,22.75
2019-02-09T12:52:16.754Z,22.74
2019-02-09T12:53:16.742Z,22.75
2019-02-09T12:54:16.743Z,22.72
2019-02-09T12:55:16.767Z,22.70
2019-02-09T12:56:16.728Z,22.75
2019-02-09T12:57:16.694Z,22.76
2019-02-09T12:58:16.686Z,22.75
2019-02-09T12:59:16.678Z,22.74
2019-02-09T13:00:16.666Z,22.69
2019-02-09T13:01:16.687Z,22.78
2019-02-09T13:02:16.639Z,22.70
2019-02-09T13:03:16.634Z,22.63
2019-02-09T13:04:16.627Z,22.69
2019-02-09T13:05:16.612Z,22.66
2019-02-09T13:06:16.621Z,22.64
2019-02-09T13:07:16.591Z,22.63
2019-02-09T13:08:16.574Z,22.63
2019-02-09T13:09:16.568Z,22.66
2019-02-09T13:10:16.551Z,22.60
2019-02-09T13:11:16.577Z,22.66
2019-02-09T13:12:16.537Z,22.56
2019-02-09T13:13:16.530Z,22.64
2019-02-09T13:14:16.509Z,22.70
2019-02-09T13:15:16.499Z,22.57
2019-02-09T13:16:16.510Z,22.63
2019-02-09T13:17:16.483Z,22.63
2019-02-09T13:18:16.468Z,22.60
2019-02-09T13:19:16.470Z,22.66
2019-02-09T13:20:16.443Z,22.61
2019-02-09T13:21:16.465Z,22.54
2019-02-09T13:22:16.428Z,22.54
2019-02-09T13:23:16.425Z,22.56
2019-02-09T13:24:16.402Z,22.61
2019-02-09T13:25:16.398Z,22.56
2019-02-09T13:26:16.432Z,22.60
2019-02-09T13:27:16.372Z,22.51
2019-02-09T13:28:16.361Z,22.57
2019-02-09T13:29:16.353Z,22.59
2019-02-09T13:30:16.337Z,22.49
2019-02-09T13:31:16.334Z,22.49
2019-02-09T13:32:16.332Z,22.56
2019-02-09T13:33:16.300Z,22.51
2019-02-09T13:34:16.291Z,22.56
2019-02-09T13:35:16.281Z,22.54
2019-02-09T13:36:16.273Z,22.46
2019-02-09T13:37:16.327Z,22.56
2019-02-09T13:38:16.250Z,22.48
2019-02-09T13:39:16.237Z,22.46
2019-02-09T13:40:16.221Z,22.56
2019-02-09T13:41:16.210Z,22.49
2019-02-09T13:42:16.235Z,22.42
2019-02-09T13:43:16.199Z,22.49
2019-02-09T13:44:16.187Z,22.51
2019-02-09T13:45:16.167Z,22.51
2019-02-09T13:46:16.165Z,22.52
2019-02-09T13:47:16.172Z,22.49
2019-02-09T13:48:16.145Z,22.51
2019-02-09T13:49:16.134Z,22.49
2019-02-09T13:50:16.116Z,22.54
2019-02-09T13:51:16.102Z,22.57
2019-02-09T13:52:16.117Z,22.64
2019-02-09T13:53:16.079Z,22.51
2019-02-09T13:54:16.070Z,22.57
2019-02-09T13:55:16.065Z,22.60
2019-02-09T13:56:16.056Z,22.56
2019-02-09T13:57:16.121Z,22.54
2019-02-09T13:58:16.033Z,22.59
2019-02-09T13:59:16.019Z,22.59
2019-02-09T14:00:16.007Z,22.52
2019-02-09T14:01:16.010Z,22.51
2019-02-09T14:02:15.989Z,22.41
2019-02-09T14:03:16.001Z,22.42
2019-02-09T14:04:15.960Z,22.33
2019-02-09T14:05:15.962Z,22.45
2019-02-09T14:06:17.689Z,22.38
2019-02-09T14:07:15.939Z,22.44
2019-02-09T14:08:15.945Z,22.45
2019-02-09T14:48:59.073Z,9.58
2019-02-09T14:49:57.521Z,9.80
2019-02-09T14:50:57.518Z,9.88
2019-02-09T14:52:59.027Z,9.86
2019-02-09T14:53:57.395Z,9.93
2019-02-09T14:54:57.423Z,9.83
2019-02-09T14:56:59.035Z,9.68
2019-02-09T14:58:59.033Z,9.68
2019-02-09T14:59:57.329Z,9.75
2019-02-09T15:00:57.343Z,9.93
2019-02-09T15:01:57.310Z,9.89
2019-02-09T15:02:57.308Z,9.92
2019-02-09T15:04:02.589Z,10.06
2019-02-09T15:04:58.282Z,10.13
2019-02-09T15:08:59.028Z,10.01
2019-02-09T15:10:59.026Z,10.06
2019-02-09T15:11:57.199Z,9.96
2019-02-09T15:12:57.196Z,10.04
2019-02-09T15:13:57.181Z,10.16
2019-02-09T15:14:57.187Z,10.13
2019-02-09T15:15:57.182Z,10.01
2019-02-09T15:17:04.290Z,10.06
2019-02-09T15:17:58.141Z,10.06
2019-02-09T15:18:57.113Z,9.98
2019-02-09T15:22:58.287Z,9.91
2019-02-09T15:24:58.533Z,9.75
2019-02-09T15:25:57.067Z,9.63
2019-02-09T15:26:57.032Z,9.63
2019-02-09T15:28:58.163Z,9.49
2019-02-09T15:29:57.012Z,9.37
2019-02-09T15:30:57.026Z,9.44
2019-02-09T15:31:57.032Z,9.42
2019-02-09T15:32:56.983Z,9.27
2019-02-09T15:33:56.977Z,9.23
2019-02-09T15:34:56.997Z,9.16
2019-02-09T15:35:58.625Z,9.23
2019-02-09T15:36:56.984Z,9.19
2019-02-09T15:38:58.079Z,9.10
2019-02-09T15:39:56.905Z,9.03
2019-02-09T15:40:56.868Z,9.06
2019-02-09T15:42:58.541Z,9.06
2019-02-09T15:43:56.836Z,9.03
2019-02-09T15:44:57.758Z,9.01
2019-02-09T15:45:56.814Z,8.94
2019-02-09T15:46:56.898Z,8.94
2019-02-09T15:47:56.796Z,9.00
2019-02-09T15:48:56.789Z,8.96
2019-02-09T15:49:56.766Z,8.91
2019-02-09T15:52:58.539Z,8.86
2019-02-09T15:54:59.036Z,8.79
2019-02-09T15:56:58.524Z,8.85
2019-02-09T15:57:56.701Z,8.73
2019-02-09T15:58:56.667Z,8.76
2019-02-09T15:59:56.781Z,8.79
2019-02-09T16:00:56.650Z,8.63
2019-02-09T16:01:56.719Z,8.67
2019-02-09T16:02:56.698Z,8.71
2019-02-09T16:03:56.627Z,8.65
2019-02-09T16:04:56.631Z,8.65
2019-02-09T16:06:58.527Z,8.58
2019-02-09T16:07:56.574Z,8.47
2019-02-09T16:08:56.603Z,8.54
2019-02-09T16:10:57.660Z,8.47
2019-02-09T16:11:56.583Z,8.46
2019-02-09T16:12:56.560Z,8.39
2019-02-09T16:14:57.649Z,8.36
2019-02-09T16:15:56.735Z,8.40
2019-02-09T16:17:57.623Z,8.40
2019-02-09T16:18:56.454Z,8.39
2019-02-09T16:19:56.458Z,8.40
2019-02-09T16:20:56.429Z,8.24
2019-02-09T16:21:56.422Z,8.37
2019-02-09T16:22:56.454Z,8.37
2019-02-09T16:23:56.395Z,8.22
2019-02-09T16:26:57.536Z,8.17
2019-02-09T16:27:56.353Z,8.12
2019-02-09T16:29:57.525Z,8.13
2019-02-09T16:31:57.515Z,8.18
2019-02-09T16:32:56.360Z,8.07
2019-02-09T16:33:56.306Z,8.06
2019-02-09T16:34:56.276Z,8.09
2019-02-09T16:35:56.270Z,8.06
2019-02-09T16:36:56.260Z,8.06
2019-02-09T16:37:56.289Z,8.03
2019-02-09T16:38:56.235Z,8.04
2019-02-09T16:40:58.033Z,7.99
2019-02-09T16:41:56.200Z,7.96
2019-02-09T16:42:56.255Z,8.03
2019-02-09T16:43:56.388Z,8.00
2019-02-09T16:44:56.169Z,7.96
2019-02-09T16:45:56.169Z,7.94
2019-02-09T16:47:57.277Z,7.95
2019-02-09T16:48:56.190Z,7.96
2019-02-09T16:49:56.144Z,7.96
2019-02-09T16:50:56.166Z,8.00
2019-02-09T16:51:56.090Z,7.92
2019-02-09T16:52:56.073Z,7.96
2019-02-09T16:54:57.521Z,7.99
2019-02-09T16:57:57.556Z,7.88
2019-02-09T16:58:56.042Z,7.92
2019-02-09T16:59:56.073Z,7.89
2019-02-09T17:01:57.167Z,7.91
2019-02-09T17:02:56.522Z,7.89
2019-02-09T17:03:56.153Z,7.89
2019-02-09T17:04:56.003Z,7.86
2019-02-09T17:05:55.971Z,7.88
2019-02-09T17:06:55.937Z,7.81
2019-02-09T17:07:56.004Z,7.81
2019-02-09T17:08:55.928Z,7.85
2019-02-09T17:09:55.946Z,7.88
2019-02-09T17:11:58.781Z,7.85
2019-02-09T17:12:55.874Z,7.81
2019-02-09T17:13:55.864Z,7.85
2019-02-09T17:14:55.891Z,7.79
2019-02-09T17:15:55.839Z,7.77
2019-02-09T17:18:57.530Z,7.81
2019-02-09T17:20:56.925Z,7.76
2019-02-09T17:21:55.766Z,7.82
2019-02-09T17:22:55.754Z,7.88
2019-02-09T17:23:55.761Z,7.84
2019-02-09T17:24:55.725Z,7.73
2019-02-09T17:25:55.773Z,7.81
2019-02-09T17:26:55.705Z,7.70
2019-02-09T17:27:55.708Z,7.79
2019-02-09T17:28:55.688Z,7.79
2019-02-09T17:29:55.687Z,7.81
2019-02-09T17:30:55.712Z,7.79
2019-02-09T17:31:55.656Z,7.81
2019-02-09T17:32:55.635Z,7.82
2019-02-09T17:33:55.626Z,7.73
2019-02-09T17:34:55.629Z,7.74
2019-02-09T17:35:55.694Z,7.76
2019-02-09T17:36:55.594Z,7.74
2019-02-09T17:37:55.578Z,7.79
2019-02-09T17:39:57.031Z,7.81
2019-02-09T17:40:55.551Z,7.81
2019-02-09T17:41:55.569Z,7.74
2019-02-09T17:42:55.524Z,7.77
2019-02-09T17:43:55.519Z,7.79
2019-02-09T17:44:55.515Z,7.73
2019-02-09T17:45:55.494Z,7.79
2019-02-09T17:46:57.078Z,7.76
2019-02-09T17:47:55.475Z,7.86
2019-02-09T17:48:55.462Z,7.76
2019-02-09T17:49:55.467Z,7.84
2019-02-09T17:50:55.439Z,7.81
2019-02-09T17:51:55.470Z,7.82
2019-02-09T17:52:55.412Z,7.86
2019-02-09T17:53:55.407Z,7.82
2019-02-09T17:54:55.395Z,7.77
2019-02-09T17:55:55.405Z,7.86
2019-02-09T17:56:55.397Z,7.85
2019-02-09T17:57:55.383Z,7.92
2019-02-09T17:59:58.340Z,7.86
2019-02-09T18:01:57.098Z,7.77
2019-02-09T18:02:55.347Z,7.77
2019-02-09T18:03:55.300Z,7.84
2019-02-09T18:04:55.290Z,7.85
2019-02-09T18:05:55.305Z,7.86
2019-02-09T18:06:55.260Z,7.89
2019-02-09T18:07:57.084Z,7.92
2019-02-09T18:10:58.226Z,7.82
2019-02-09T18:11:55.253Z,7.89
2019-02-09T18:12:55.187Z,7.89
2019-02-09T18:14:58.185Z,7.88
2019-02-09T18:15:55.184Z,7.91
2019-02-09T18:16:55.170Z,7.92
2019-02-09T18:17:57.094Z,7.89
2019-02-09T18:18:55.210Z,7.92
2019-02-09T18:19:55.132Z,7.91
2019-02-09T18:20:55.132Z,7.88
2019-02-09T18:22:57.086Z,7.91
2019-02-09T18:23:55.116Z,7.88
2019-02-09T18:24:55.053Z,7.88
2019-02-09T18:25:55.047Z,7.82
2019-02-09T18:26:55.041Z,7.79
2019-02-09T18:27:55.038Z,7.86
2019-02-09T18:28:56.601Z,7.82
2019-02-09T18:29:55.003Z,7.81
2019-02-09T18:30:55.046Z,7.77
2019-02-09T18:32:54.997Z,7.84
2019-02-09T18:34:12.183Z,7.81
2019-02-09T18:35:57.981Z,7.82
2019-02-09T18:36:54.937Z,7.73
2019-02-09T18:41:57.919Z,7.74
2019-02-09T18:43:15.868Z,7.76
2019-02-09T18:43:54.920Z,7.70
2019-02-09T18:44:54.858Z,7.57
2019-02-09T18:45:57.842Z,7.57
2019-02-09T18:46:55.884Z,7.62
2019-02-09T18:47:54.819Z,7.58
2019-02-09T18:48:55.127Z,7.63
2019-02-09T18:50:56.013Z,7.52
2019-02-09T18:52:56.548Z,7.51
2019-02-09T19:11:06.880Z,7.51
2019-02-09T19:12:06.831Z,7.52
2019-02-09T19:15:08.246Z,7.60
2019-02-09T19:17:21.662Z,7.58
2019-02-09T19:18:13.730Z,7.60
2019-02-09T19:19:13.713Z,7.58
2019-02-09T19:21:28.851Z,7.88
2019-02-09T19:22:28.811Z,7.88
2019-02-09T19:23:28.788Z,7.74
2019-02-09T19:24:28.776Z,7.79
2019-02-09T19:25:28.765Z,7.70
2019-02-09T19:26:28.896Z,7.70
2019-02-09T19:27:28.742Z,7.70
2019-02-09T19:28:28.846Z,7.60
2019-02-09T19:29:28.723Z,7.74
2019-02-09T19:30:28.710Z,7.70
2019-02-09T19:31:28.747Z,7.58
2019-02-09T19:32:28.707Z,7.62
2019-02-09T19:33:28.677Z,7.52
2019-02-09T19:34:28.667Z,7.58
2019-02-09T19:35:28.655Z,7.52
2019-02-09T19:36:28.704Z,7.52
2019-02-09T19:37:28.691Z,7.52
2019-02-09T19:38:28.628Z,7.54
2019-02-09T19:39:28.614Z,7.63
2019-02-09T19:40:28.603Z,7.58
2019-02-09T19:41:28.634Z,7.48
2019-02-09T19:42:28.634Z,7.50
2019-02-09T19:43:28.568Z,7.48
2019-02-09T19:44:28.559Z,7.54
2019-02-09T19:45:28.548Z,7.50
2019-02-09T19:46:28.583Z,7.48
2019-02-09T19:47:28.577Z,7.47
2019-02-09T19:48:28.515Z,7.51
2019-02-09T19:49:28.505Z,7.50
2019-02-09T19:50:28.493Z,7.54
2019-02-09T19:51:28.535Z,7.51
2019-02-09T19:52:28.475Z,7.60
2019-02-09T19:53:28.463Z,7.63
2019-02-09T19:54:28.451Z,7.57
2019-02-09T19:55:28.440Z,7.76
2019-02-09T19:56:28.482Z,7.73
2019-02-09T19:57:28.459Z,7.57
2019-02-09T19:58:28.408Z,7.62
2019-02-09T19:59:28.403Z,7.73
2019-02-09T20:00:28.386Z,7.70
2019-02-09T20:01:28.376Z,7.74
2019-02-09T20:02:28.415Z,7.69
2019-02-09T20:03:28.352Z,7.71
2019-02-09T20:04:28.345Z,7.58
2019-02-09T20:05:28.370Z,7.71
2019-02-09T20:06:28.319Z,7.74
2019-02-09T20:07:28.352Z,7.73
2019-02-09T20:08:28.298Z,7.58
2019-02-09T20:09:28.288Z,7.70
2019-02-09T20:10:28.277Z,7.60
2019-02-09T20:11:28.265Z,7.58
2019-02-09T20:12:28.314Z,7.58
2019-02-09T20:13:28.245Z,7.58
2019-02-09T20:14:28.276Z,7.60
2019-02-09T20:15:28.893Z,7.71
2019-02-09T20:16:28.256Z,7.70
2019-02-09T20:17:28.243Z,7.66
2019-02-09T20:18:28.208Z,7.73
2019-02-09T20:19:28.180Z,7.70
2019-02-09T20:20:28.167Z,7.69
2019-02-09T20:21:28.160Z,7.73
2019-02-09T20:22:28.190Z,7.73
2019-02-09T20:23:28.136Z,7.70
2019-02-09T20:24:28.136Z,7.73
2019-02-09T20:25:28.114Z,7.70
2019-02-09T20:26:28.105Z,7.70
2019-02-09T20:27:28.159Z,7.60
2019-02-09T20:28:28.082Z,7.67
2019-02-09T20:29:28.124Z,7.74
2019-02-09T20:30:28.060Z,7.70
2019-02-09T20:31:28.053Z,7.71
2019-02-09T20:32:28.091Z,7.58
2019-02-09T20:33:28.029Z,7.54
2019-02-09T20:34:28.017Z,7.54
2019-02-09T20:35:28.191Z,7.57
2019-02-09T20:36:27.994Z,7.67
2019-02-09T20:37:28.027Z,7.54
2019-02-09T20:38:27.977Z,7.57
2019-02-09T20:39:27.971Z,7.51
2019-02-09T20:40:28.084Z,7.52
2019-02-09T20:41:27.965Z,7.58
2019-02-09T20:42:27.978Z,7.51
2019-02-09T20:43:27.920Z,7.54
2019-02-09T20:44:27.910Z,7.62
2019-02-09T20:45:27.913Z,7.55
2019-02-09T20:46:27.886Z,7.66
2019-02-09T20:47:27.937Z,7.48
2019-02-09T20:48:27.866Z,7.52
2019-02-09T20:49:27.857Z,7.51
2019-02-09T20:50:27.851Z,7.52
2019-02-09T20:51:27.832Z,7.51
2019-02-09T20:52:27.867Z,7.51
2019-02-09T20:53:27.831Z,7.48
2019-02-09T20:54:27.799Z,7.52
2019-02-09T20:55:27.793Z,7.52
2019-02-09T20:56:27.793Z,7.48
2019-02-09T20:57:27.812Z,7.52
2019-02-09T20:58:27.775Z,7.55
2019-02-09T20:59:27.764Z,7.57
2019-02-09T21:00:27.784Z,7.54
2019-02-09T21:01:27.749Z,7.51
2019-02-09T21:02:27.832Z,7.51
2019-02-09T21:03:27.733Z,7.54
2019-02-09T21:04:27.746Z,7.48
2019-02-09T21:05:35.722Z,7.51
2019-02-09T21:06:28.668Z,7.41
2019-02-09T21:07:27.785Z,7.44
2019-02-09T21:08:29.450Z,7.37
2019-02-09T21:09:27.723Z,7.39
2019-02-09T21:10:27.691Z,7.37
2019-02-09T21:11:27.618Z,7.44
2019-02-09T21:12:27.671Z,7.41
2019-02-09T21:13:27.606Z,7.39
2019-02-09T21:14:27.584Z,7.37
2019-02-09T21:15:27.637Z,7.44
2019-02-09T21:16:27.575Z,7.42
2019-02-09T21:17:27.549Z,7.39
2019-02-09T21:18:27.585Z,7.45
2019-02-09T21:19:27.532Z,7.52
2019-02-09T21:20:27.518Z,7.51
2019-02-09T21:21:27.508Z,7.47
2019-02-09T21:22:27.517Z,7.48
2019-02-09T21:23:27.565Z,7.47
2019-02-09T21:24:27.535Z,7.50
2019-02-09T21:25:27.484Z,7.42
2019-02-09T21:26:27.494Z,7.41
2019-02-09T21:27:27.499Z,7.39
2019-02-09T21:28:27.614Z,7.44
2019-02-09T21:29:27.424Z,7.39
2019-02-09T21:30:27.416Z,7.39
2019-02-09T21:31:27.398Z,7.41
2019-02-09T21:32:27.396Z,7.48
2019-02-09T21:33:27.432Z,7.41
2019-02-09T21:34:27.925Z,7.29
2019-02-09T21:35:27.416Z,7.34
2019-02-09T21:36:27.408Z,7.37
2019-02-09T21:37:27.395Z,7.44
2019-02-09T21:38:27.374Z,7.37
2019-02-09T21:39:33.797Z,7.34
2019-02-09T21:40:28.344Z,7.37
2019-02-09T21:41:27.290Z,7.41
2019-02-09T21:42:27.289Z,7.37
2019-02-09T21:43:27.328Z,7.41
2019-02-09T21:44:27.258Z,7.42
2019-02-09T21:45:27.250Z,7.39
2019-02-09T21:46:27.237Z,7.41
2019-02-09T21:47:27.232Z,7.41
2019-02-09T21:48:27.265Z,7.39
2019-02-09T21:49:27.257Z,7.50
2019-02-09T21:50:27.193Z,7.39
2019-02-09T21:51:27.183Z,7.42
2019-02-09T21:52:27.172Z,7.39
2019-02-09T21:53:27.214Z,7.45
2019-02-09T21:54:27.196Z,7.42
2019-02-09T21:55:27.140Z,7.42
2019-02-09T21:56:27.881Z,7.41
2019-02-09T21:57:27.120Z,7.47
2019-02-09T21:58:27.152Z,7.39
2019-02-09T21:59:27.100Z,7.44
2019-02-09T22:00:27.136Z,7.39
2019-02-09T22:01:27.079Z,7.39
2019-02-09T22:02:27.064Z,7.39
2019-02-09T22:03:27.096Z,7.42
2019-02-09T22:04:27.041Z,7.48
2019-02-09T22:05:27.087Z,7.44
2019-02-09T22:06:27.026Z,7.41
2019-02-09T22:07:27.009Z,7.39
2019-02-09T22:08:27.059Z,7.39
2019-02-09T22:09:26.988Z,7.44
2019-02-09T22:10:31.066Z,7.41
2019-02-09T22:11:28.010Z,7.42
2019-02-09T22:12:27.008Z,7.34
2019-02-09T22:13:26.995Z,7.37
2019-02-09T22:14:27.004Z,7.34
2019-02-09T22:15:26.944Z,7.45
2019-02-09T22:16:26.933Z,7.52
2019-02-09T22:17:26.950Z,7.54
2019-02-09T22:18:27.005Z,7.50
2019-02-09T22:19:26.926Z,7.52
2019-02-09T22:20:26.868Z,7.55
2019-02-09T22:21:26.982Z,7.48
2019-02-09T22:22:26.860Z,7.51
2019-02-09T22:23:26.890Z,7.50
2019-02-09T22:24:26.823Z,7.52
2019-02-09T22:25:26.817Z,7.57
2019-02-09T22:26:26.813Z,7.60
2019-02-09T22:27:26.793Z,7.58
2019-02-09T22:28:26.877Z,7.63
2019-02-09T22:29:26.825Z,7.51
2019-02-09T22:30:26.764Z,7.58
2019-02-09T22:31:26.748Z,7.58
2019-02-09T22:32:26.738Z,7.52
2019-02-09T22:33:26.783Z,7.54
2019-02-09T22:34:26.726Z,7.54
2019-02-09T22:35:26.814Z,7.63
2019-02-09T22:36:26.696Z,7.57
2019-02-09T22:37:26.773Z,7.60
2019-02-09T22:38:26.715Z,7.58
2019-02-09T22:39:26.664Z,7.60
2019-02-09T22:40:26.652Z,7.60
2019-02-09T22:41:26.681Z,7.57
2019-02-09T22:42:26.671Z,7.70
2019-02-09T22:43:26.713Z,7.70
2019-02-09T22:44:26.657Z,7.63
2019-02-09T22:45:26.613Z,7.60
2019-02-09T22:46:26.589Z,7.55
2019-02-09T22:47:26.584Z,7.60
2019-02-09T22:48:26.574Z,7.57
2019-02-09T22:49:26.738Z,7.67
2019-02-09T22:50:26.588Z,7.70
2019-02-09T22:51:26.545Z,7.58
2019-02-09T22:52:26.529Z,7.69
2019-02-09T22:53:26.509Z,7.74
2019-02-09T22:54:26.587Z,7.77
2019-02-09T22:55:26.519Z,7.67
2019-02-09T22:56:26.483Z,7.67
2019-02-09T22:57:26.466Z,7.69
2019-02-09T22:58:26.455Z,7.67
2019-02-09T22:59:26.489Z,7.69
2019-02-09T23:00:26.435Z,7.73
2019-02-09T23:01:26.428Z,7.71
2019-02-09T23:02:26.414Z,7.77
2019-02-09T23:03:26.404Z,7.77
2019-02-09T23:04:26.436Z,7.66
2019-02-09T23:05:26.380Z,7.71
2019-02-09T23:06:26.380Z,7.74
2019-02-09T23:07:26.360Z,7.77
2019-02-09T23:08:26.348Z,7.79
2019-02-09T23:09:26.385Z,7.77
2019-02-09T23:10:26.326Z,7.70
2019-02-09T23:11:26.318Z,7.74
2019-02-09T23:12:26.305Z,7.74
2019-02-09T23:13:26.294Z,7.77
2019-02-09T23:14:26.329Z,7.74
2019-02-09T23:15:26.273Z,7.69
2019-02-09T23:16:26.263Z,7.76
2019-02-09T23:17:26.255Z,7.74
2019-02-09T23:18:26.243Z,7.71
2019-02-09T23:19:26.277Z,7.73
2019-02-09T23:20:26.221Z,7.73
2019-02-09T23:21:26.211Z,7.73
2019-02-09T23:22:26.197Z,7.67
2019-02-09T23:23:26.189Z,7.69
2019-02-09T23:24:26.227Z,7.62
2019-02-09T23:25:26.168Z,7.74
2019-02-09T23:26:26.162Z,7.69
2019-02-09T23:27:26.164Z,7.70
2019-02-09T23:28:26.133Z,7.76
2019-02-09T23:29:26.180Z,7.77
2019-02-09T23:30:26.117Z,7.71
2019-02-09T23:31:26.102Z,7.70
2019-02-09T23:32:26.092Z,7.73
2019-02-09T23:33:26.087Z,7.74
2019-02-09T23:34:26.123Z,7.67
2019-02-09T23:35:26.057Z,7.66
2019-02-09T23:36:26.045Z,7.55
2019-02-09T23:37:26.036Z,7.57
2019-02-09T23:38:26.034Z,7.57
2019-02-09T23:39:26.058Z,7.58
2019-02-09T23:40:26.006Z,7.57
2019-02-09T23:41:25.993Z,7.58
2019-02-09T23:42:25.982Z,7.73
2019-02-09T23:43:26.002Z,7.62
2019-02-09T23:44:26.005Z,7.70
2019-02-09T23:45:25.950Z,7.57
2019-02-09T23:46:25.940Z,7.73
2019-02-09T23:47:25.929Z,7.66
2019-02-09T23:48:25.923Z,7.71
2019-02-09T23:49:25.955Z,7.67
2019-02-09T23:50:25.895Z,7.71
2019-02-09T23:51:25.887Z,7.74
2019-02-09T23:52:25.875Z,7.71
2019-02-09T23:53:25.865Z,7.57
2019-02-09T23:54:25.903Z,7.62
2019-02-09T23:55:25.847Z,7.62
2019-02-09T23:56:25.833Z,7.55
2019-02-09T23:57:25.825Z,7.55
2019-02-09T23:58:25.815Z,7.57
2019-02-09T23:59:25.844Z,7.55
